Port Richey, Florida
Current Conditions -  °F | °C
As of 3:53 PM on Thursday 23 Oct 2014 (Local Time) from KBKV Reporting Station
Clear Clear  
Wind Chill: 79°   Ceiling: Unl
Heat Index: 79°   Visibility: 10mi
Dew Point: 53°   Wind: 10mph
Humidity: 40%   Direction: 50°NE
Pressure: 29.94"   Gusts: 17mph
Location:  28.27°N, 82.73°W
Report Text: KBKV 231953Z 05009G15KT 10SM CLR 26/12 A2994 RMK AO2 SLP137 T02610117
Loading
Personal Weather Stations






























Interactive Weather Map
Tropical Storm Tracking
New forecast layout! Learn more

10-Day Weather Forecast

Advertisements
Track Severe Weather on mobile